Time;durP1;ratioP1;P1;durP2;ratioP2;P2;SDS_P1;SDS_P2;PMS_P1;PMS_P2;Temp;Humidity;BMP_temperature;BMP_pressure;BME280_temperature;BME280_humidity;BME280_pressure;Samples;Min_cycle;Max_cycle;Signal;HPM_P1;HPM_P2
2021/01/13 00:00:08;;;;;;;4.27;2.00;;;1.40;99.90;;;;;;5009720;28;20433;-63
2021/01/13 00:02:34;;;;;;;2.43;2.20;;;1.40;99.90;;;;;;5012504;28;20529;-63
2021/01/13 00:04:59;;;;;;;2.37;2.17;;;1.40;99.90;;;;;;5014260;28;20432;-63
2021/01/13 00:07:25;;;;;;;2.10;2.00;;;1.40;99.90;;;;;;5014115;28;20421;-62
2021/01/13 00:09:51;;;;;;;2.33;2.17;;;1.40;99.90;;;;;;5014248;28;20196;-63
2021/01/13 00:12:16;;;;;;;2.50;2.30;;;1.40;99.90;;;;;;4997254;28;20297;-63
2021/01/13 00:14:43;;;;;;;2.07;1.97;;;1.40;99.90;;;;;;5013690;28;20235;-63
2021/01/13 00:17:09;;;;;;;2.67;2.47;;;1.30;99.90;;;;;;5013081;28;20586;-63
2021/01/13 00:19:34;;;;;;;2.13;2.00;;;1.30;99.90;;;;;;5012999;28;20986;-63
2021/01/13 00:22:00;;;;;;;3.70;2.70;;;1.30;99.90;;;;;;5013185;28;20517;-63
2021/01/13 00:24:26;;;;;;;2.63;2.43;;;1.30;99.90;;;;;;5014276;28;20422;-63
2021/01/13 00:27:01;;;;;;;3.40;2.40;;;1.30;99.90;;;;;;5014167;28;20211;-64
2021/01/13 00:29:27;;;;;;;3.40;3.10;;;1.30;99.90;;;;;;5010013;28;20194;-63
2021/01/13 00:32:00;;;;;;;3.60;2.50;;;1.30;99.90;;;;;;4994187;28;20426;-63
2021/01/13 00:34:27;;;;;;;2.80;2.60;;;1.30;99.90;;;;;;4998685;28;20425;-63
2021/01/13 00:36:53;;;;;;;2.40;2.20;;;1.30;99.90;;;;;;5010993;28;20496;-63
2021/01/13 00:39:19;;;;;;;3.13;2.77;;;1.30;99.90;;;;;;5008133;28;20462;-63
2021/01/13 00:41:45;;;;;;;2.73;2.53;;;1.20;99.90;;;;;;5008178;28;20461;-63
2021/01/13 00:44:11;;;;;;;2.80;2.60;;;1.20;99.90;;;;;;5011299;28;20421;-63
2021/01/13 00:46:39;;;;;;;3.33;3.03;;;1.20;99.90;;;;;;5010289;28;20638;-63
2021/01/13 00:49:06;;;;;;;3.10;2.80;;;1.20;99.90;;;;;;5008945;28;20179;-63
2021/01/13 00:51:39;;;;;;;4.67;3.50;;;1.20;99.90;;;;;;5003707;28;20440;-63
2021/01/13 00:54:06;;;;;;;3.27;2.60;;;1.20;99.90;;;;;;5012003;28;20978;-63
2021/01/13 00:56:32;;;;;;;3.53;3.20;;;1.20;99.90;;;;;;5012473;28;20424;-63
2021/01/13 00:58:58;;;;;;;6.30;3.60;;;1.20;99.90;;;;;;4986025;28;20451;-63
2021/01/13 01:01:26;;;;;;;4.43;3.03;;;1.20;99.90;;;;;;5009202;28;20434;-63
2021/01/13 01:03:55;;;;;;;4.57;3.27;;;1.20;99.90;;;;;;5014013;28;20587;-63
2021/01/13 01:06:21;;;;;;;4.47;3.10;;;1.20;99.90;;;;;;5010731;28;20500;-63
2021/01/13 01:08:46;;;;;;;3.60;3.13;;;1.20;99.90;;;;;;5007161;28;20417;-63
2021/01/13 01:11:17;;;;;;;3.30;3.00;;;1.20;99.90;;;;;;5013170;28;20492;-63
2021/01/13 01:13:42;;;;;;;3.53;3.23;;;1.20;99.90;;;;;;5014005;28;20167;-63
2021/01/13 01:16:08;;;;;;;4.20;3.47;;;1.20;99.90;;;;;;5019129;28;20459;-63
2021/01/13 01:18:34;;;;;;;4.60;3.70;;;1.20;99.90;;;;;;5022886;28;20243;-62
2021/01/13 01:20:59;;;;;;;3.87;3.47;;;1.20;99.90;;;;;;5013535;28;20687;-64
2021/01/13 01:23:25;;;;;;;3.30;3.00;;;1.20;99.90;;;;;;5011650;28;20189;-63
2021/01/13 01:25:50;;;;;;;6.93;3.97;;;1.20;99.90;;;;;;5012669;28;20214;-63
2021/01/13 01:28:17;;;;;;;6.97;4.90;;;1.20;99.90;;;;;;5009665;28;20660;-63
2021/01/13 01:30:42;;;;;;;5.43;3.60;;;1.20;99.90;;;;;;5012467;28;20228;-63
2021/01/13 01:33:09;;;;;;;4.43;4.00;;;1.20;99.90;;;;;;5012015;28;20424;-63
2021/01/13 01:35:34;;;;;;;4.20;3.60;;;1.20;99.90;;;;;;5009895;28;20679;-63
2021/01/13 01:38:00;;;;;;;5.40;4.90;;;1.20;99.90;;;;;;5010369;28;20432;-63
2021/01/13 01:40:26;;;;;;;7.17;4.80;;;1.20;99.90;;;;;;5025748;28;20218;-64
2021/01/13 01:42:53;;;;;;;5.57;4.90;;;1.20;99.90;;;;;;5017287;28;20186;-63
2021/01/13 01:45:30;;;;;;;8.17;4.03;;;1.20;99.90;;;;;;5016617;28;20210;-63
2021/01/13 01:47:59;;;;;;;5.03;4.30;;;1.20;99.90;;;;;;5006395;28;20533;-63
2021/01/13 01:50:45;;;;;;;5.47;4.07;;;1.20;99.90;;;;;;4990072;28;20439;-63
2021/01/13 01:53:14;;;;;;;5.30;4.30;;;1.20;99.90;;;;;;4993876;28;20419;-63
2021/01/13 01:55:54;;;;;;;6.30;4.23;;;1.20;99.90;;;;;;5002620;28;20517;-63
2021/01/13 01:58:25;;;;;;;4.40;3.93;;;1.20;99.90;;;;;;5003605;28;20445;-63
2021/01/13 02:00:56;;;;;;;5.57;4.50;;;1.20;99.90;;;;;;5013544;28;20892;-63
2021/01/13 02:03:23;;;;;;;4.90;4.40;;;1.20;99.90;;;;;;5013471;28;20483;-64
2021/01/13 02:06:02;;;;;;;3.97;3.53;;;1.20;99.90;;;;;;5006288;28;20468;-63
2021/01/13 02:08:34;;;;;;;4.37;3.53;;;1.10;99.90;;;;;;5007061;28;20422;-63
2021/01/13 02:11:00;;;;;;;4.17;3.77;;;1.10;99.90;;;;;;5023210;28;20457;-63
2021/01/13 02:13:25;;;;;;;4.50;4.10;;;1.10;99.90;;;;;;5011461;28;20501;-65
2021/01/13 02:15:51;;;;;;;5.60;4.57;;;1.00;99.90;;;;;;4994172;28;20186;-63
2021/01/13 02:18:21;;;;;;;5.60;4.53;;;1.00;99.90;;;;;;5011587;28;20198;-63
2021/01/13 02:20:53;;;;;;;8.20;4.47;;;1.00;99.90;;;;;;5010713;28;20471;-63
2021/01/13 02:23:33;;;;;;;4.90;3.90;;;0.90;99.90;;;;;;5007004;28;20446;-64
2021/01/13 02:26:23;;;;;;;8.37;3.53;;;0.90;99.90;;;;;;5012249;28;20474;-63
2021/01/13 02:29:10;;;;;;;4.77;3.60;;;0.90;99.90;;;;;;5026946;28;20432;-63
2021/01/13 02:31:43;;;;;;;4.10;3.70;;;0.90;99.90;;;;;;5028762;28;20452;-63
2021/01/13 02:34:22;;;;;;;4.60;3.50;;;0.80;99.90;;;;;;5036219;28;20420;-63
2021/01/13 02:37:26;;;;;;;4.47;3.83;;;0.80;99.90;;;;;;5029639;28;20455;-63
2021/01/13 02:39:54;;;;;;;4.90;3.77;;;0.80;99.90;;;;;;5021844;28;20444;-63
2021/01/13 02:42:28;;;;;;;5.60;4.07;;;0.80;99.90;;;;;;5035697;28;20458;-63
2021/01/13 02:45:32;;;;;;;5.67;3.87;;;0.80;99.90;;;;;;5036036;28;20436;-63
2021/01/13 02:47:58;;;;;;;4.50;3.90;;;0.80;99.90;;;;;;5022231;28;20529;-64
2021/01/13 02:50:24;;;;;;;3.83;3.43;;;0.80;99.90;;;;;;5033108;28;20460;-63
2021/01/13 02:53:11;;;;;;;9.10;4.90;;;0.80;99.90;;;;;;5032588;28;20204;-64
2021/01/13 02:55:48;;;;;;;6.30;4.60;;;0.80;99.90;;;;;;5032343;28;20226;-65
2021/01/13 02:58:32;;;;;;;6.33;4.20;;;0.80;99.90;;;;;;5021452;28;20418;-63
2021/01/13 03:01:01;;;;;;;6.30;4.53;;;0.80;99.90;;;;;;5026222;28;20465;-63
2021/01/13 03:03:32;;;;;;;5.40;4.10;;;0.80;99.90;;;;;;5024647;28;20412;-65
2021/01/13 03:06:06;;;;;;;10.47;5.03;;;0.80;99.90;;;;;;5037041;28;20452;-63
2021/01/13 03:08:56;;;;;;;4.20;3.80;;;0.80;99.90;;;;;;5044263;28;20440;-63
2021/01/13 03:11:22;;;;;;;6.33;4.30;;;0.80;99.90;;;;;;5019177;28;20442;-63
2021/01/13 03:13:48;;;;;;;5.57;4.17;;;0.70;99.90;;;;;;5033668;28;20428;-63
2021/01/13 03:16:15;;;;;;;6.23;4.30;;;0.70;99.90;;;;;;5040289;28;20446;-64
2021/01/13 03:19:02;;;;;;;5.13;3.90;;;0.70;99.90;;;;;;5015478;28;20435;-64
2021/01/13 03:21:39;;;;;;;5.90;4.47;;;0.70;99.90;;;;;;5013495;28;20453;-63
2021/01/13 03:24:28;;;;;;;6.37;4.80;;;0.60;99.90;;;;;;5013910;28;20462;-64
2021/01/13 03:26:55;;;;;;;7.10;5.37;;;0.60;99.90;;;;;;5002498;28;20465;-64
2021/01/13 03:29:22;;;;;;;6.60;4.67;;;0.60;99.90;;;;;;5011591;28;20440;-64
2021/01/13 03:32:08;;;;;;;4.87;3.60;;;0.60;99.90;;;;;;5016755;28;21022;-64
2021/01/13 03:35:02;;;;;;;4.47;3.73;;;0.60;99.90;;;;;;5006227;28;20434;-63
2021/01/13 03:37:53;;;;;;;6.60;3.93;;;0.50;99.90;;;;;;5008298;28;20487;-64
2021/01/13 03:40:21;;;;;;;6.17;3.40;;;0.50;99.90;;;;;;5011752;28;21115;-64
2021/01/13 03:42:53;;;;;;;9.03;4.13;;;0.40;99.90;;;;;;5014966;28;20463;-64
2021/01/13 03:45:32;;;;;;;5.00;3.43;;;0.40;99.90;;;;;;5014479;28;20524;-64
2021/01/13 03:48:04;;;;;;;6.10;4.17;;;0.40;99.90;;;;;;5010563;28;20428;-64
2021/01/13 03:50:43;;;;;;;8.90;3.30;;;0.40;99.90;;;;;;5013041;28;20461;-64
2021/01/13 03:53:14;;;;;;;6.17;3.73;;;0.40;99.90;;;;;;5011667;28;20796;-63
2021/01/13 03:55:44;;;;;;;5.00;3.77;;;0.40;99.90;;;;;;5010503;28;20847;-64
2021/01/13 03:58:12;;;;;;;9.30;4.33;;;0.40;99.90;;;;;;5014267;28;20520;-64
2021/01/13 04:00:40;;;;;;;4.57;4.13;;;0.40;99.90;;;;;;5014955;28;20440;-64
2021/01/13 04:03:42;;;;;;;5.33;4.33;;;0.40;99.90;;;;;;5010793;28;20881;-64
2021/01/13 04:06:09;;;;;;;3.70;3.40;;;0.40;99.90;;;;;;4997089;28;20905;-64
2021/01/13 04:08:40;;;;;;;6.20;4.40;;;0.40;99.90;;;;;;5013483;28;20481;-65
2021/01/13 04:11:21;;;;;;;10.60;4.10;;;0.30;99.90;;;;;;5011002;28;20536;-64
2021/01/13 04:13:53;;;;;;;6.30;4.67;;;0.30;99.90;;;;;;5011860;28;20439;-63
2021/01/13 04:16:23;;;;;;;5.23;4.13;;;0.30;99.90;;;;;;5012675;28;20455;-64
2021/01/13 04:18:52;;;;;;;14.20;4.50;;;0.30;99.90;;;;;;5014458;28;20949;-64
2021/01/13 04:21:21;;;;;;;5.83;3.60;;;0.30;99.90;;;;;;5014335;28;20445;-64
2021/01/13 04:23:47;;;;;;;4.40;3.10;;;0.20;99.90;;;;;;5011092;28;20446;-64
2021/01/13 04:26:14;;;;;;;4.70;3.60;;;0.20;99.90;;;;;;5013505;28;20452;-64
2021/01/13 04:28:41;;;;;;;4.90;3.30;;;0.20;99.90;;;;;;5014330;28;20504;-63
2021/01/13 04:31:07;;;;;;;11.80;3.70;;;0.20;99.90;;;;;;5012488;28;20457;-63
2021/01/13 04:33:34;;;;;;;4.73;4.20;;;0.20;99.90;;;;;;5015135;28;20487;-63
2021/01/13 04:36:03;;;;;;;8.20;3.40;;;0.20;99.90;;;;;;5013668;28;20473;-64
2021/01/13 04:38:32;;;;;;;4.80;4.07;;;0.20;99.90;;;;;;5013007;28;20523;-64
2021/01/13 04:41:11;;;;;;;5.10;4.10;;;0.20;99.90;;;;;;5005259;28;20495;-63
2021/01/13 04:43:53;;;;;;;6.00;4.30;;;0.10;99.90;;;;;;5014076;28;20508;-63
2021/01/13 04:46:39;;;;;;;9.20;4.70;;;0.10;99.90;;;;;;5012283;28;20457;-63
2021/01/13 04:49:08;;;;;;;7.97;3.97;;;0.10;99.90;;;;;;5008308;28;20433;-64
2021/01/13 04:51:42;;;;;;;5.77;4.03;;;0.00;99.90;;;;;;5007842;28;20444;-64
2021/01/13 04:54:10;;;;;;;11.93;4.67;;;0.00;99.90;;;;;;4998290;28;20508;-64
2021/01/13 04:57:12;;;;;;;3.90;3.47;;;0.00;99.90;;;;;;5012673;28;20445;-63
2021/01/13 04:59:55;;;;;;;9.03;4.67;;;0.00;99.90;;;;;;4985826;28;20444;-63
2021/01/13 05:02:57;;;;;;;5.27;3.43;;;0.10;99.90;;;;;;5006100;28;20499;-62
2021/01/13 05:05:29;;;;;;;6.20;3.60;;;0.00;99.90;;;;;;4974404;28;20420;-64
2021/01/13 05:08:13;;;;;;;4.30;3.20;;;0.00;99.90;;;;;;5009587;28;21013;-63
2021/01/13 05:10:42;;;;;;;4.80;3.50;;;0.00;99.90;;;;;;5004360;28;20462;-63
2021/01/13 05:13:17;;;;;;;5.70;3.90;;;0.00;99.90;;;;;;5011330;28;20452;-63
2021/01/13 05:15:56;;;;;;;9.00;3.70;;;0.00;99.90;;;;;;5009278;28;20454;-64
2021/01/13 05:18:56;;;;;;;8.33;4.37;;;0.00;99.90;;;;;;5009202;28;20464;-63
2021/01/13 05:21:26;;;;;;;7.43;4.90;;;0.00;99.90;;;;;;5001214;28;20445;-63
2021/01/13 05:23:56;;;;;;;7.57;3.93;;;0.00;99.90;;;;;;5010370;28;20437;-64
2021/01/13 05:26:27;;;;;;;6.00;4.20;;;-0.10;99.90;;;;;;5011605;28;20450;-64
2021/01/13 05:29:04;;;;;;;9.73;4.70;;;-0.10;99.90;;;;;;5002149;28;20946;-64
2021/01/13 05:31:35;;;;;;;4.97;4.10;;;-0.10;99.90;;;;;;5011303;28;20963;-64
2021/01/13 05:34:02;;;;;;;5.40;3.83;;;-0.20;99.90;;;;;;5012157;28;21034;-63
2021/01/13 05:36:32;;;;;;;5.30;4.13;;;-0.30;99.90;;;;;;5008046;28;20546;-63
2021/01/13 05:39:10;;;;;;;4.20;3.63;;;-0.40;99.90;;;;;;5006046;28;20960;-64
2021/01/13 05:41:40;;;;;;;10.60;4.63;;;-0.50;99.90;;;;;;5008627;28;20468;-64
2021/01/13 05:44:07;;;;;;;7.13;4.27;;;-0.50;99.90;;;;;;4992332;28;20464;-64
2021/01/13 05:46:43;;;;;;;8.17;4.50;;;-0.50;99.90;;;;;;5012547;28;20503;-63
2021/01/13 05:49:10;;;;;;;6.63;4.30;;;-0.60;99.90;;;;;;5004487;28;20436;-63
2021/01/13 05:51:36;;;;;;;6.43;4.77;;;-0.60;99.90;;;;;;5004034;28;20460;-63
2021/01/13 05:54:03;;;;;;;9.70;5.60;;;-0.60;99.90;;;;;;5006916;28;20943;-63
2021/01/13 05:56:35;;;;;;;8.50;5.37;;;-0.50;99.90;;;;;;5003863;28;20950;-64
2021/01/13 05:59:09;;;;;;;13.33;5.23;;;-0.50;99.90;;;;;;5004543;28;20463;-63
2021/01/13 06:01:53;;;;;;;11.00;4.60;;;-0.50;99.90;;;;;;5002913;28;21300;-63
2021/01/13 06:04:19;;;;;;;7.50;4.50;;;-0.40;99.90;;;;;;5005420;28;20433;-63
2021/01/13 06:07:16;;;;;;;8.17;4.10;;;-0.40;99.90;;;;;;5009064;28;20526;-63
2021/01/13 06:09:43;;;;;;;8.60;4.40;;;-0.40;99.90;;;;;;5003061;28;20452;-63
2021/01/13 06:12:17;;;;;;;5.70;4.20;;;-0.40;99.90;;;;;;5004464;28;20998;-63
2021/01/13 06:14:43;;;;;;;8.20;4.90;;;-0.40;99.90;;;;;;5011067;28;20492;-62
2021/01/13 06:17:18;;;;;;;5.70;3.90;;;-0.40;99.90;;;;;;4996272;28;20529;-62
2021/01/13 06:19:48;;;;;;;11.80;4.67;;;-0.40;99.90;;;;;;5001812;28;20191;-63
2021/01/13 06:22:14;;;;;;;11.73;4.37;;;-0.40;99.90;;;;;;5014376;28;21020;-63
2021/01/13 06:24:41;;;;;;;5.67;3.77;;;-0.30;99.90;;;;;;5000903;28;20431;-63
2021/01/13 06:27:22;;;;;;;9.87;5.50;;;-0.30;99.90;;;;;;4983542;28;20462;-62
2021/01/13 06:29:52;;;;;;;8.53;5.33;;;-0.40;99.90;;;;;;5003495;28;20470;-62
2021/01/13 06:32:50;;;;;;;5.90;4.20;;;-0.40;99.90;;;;;;4998234;28;20812;-62
2021/01/13 06:35:34;;;;;;;7.97;3.23;;;-0.30;99.90;;;;;;5001794;28;20441;-63
2021/01/13 06:38:01;;;;;;;8.10;3.50;;;-0.40;99.90;;;;;;4999180;28;20508;-62
2021/01/13 06:40:27;;;;;;;6.00;3.63;;;-0.40;99.90;;;;;;5010601;28;20568;-62
2021/01/13 06:42:53;;;;;;;5.27;3.90;;;-0.40;99.90;;;;;;5005292;28;20449;-62
2021/01/13 06:45:31;;;;;;;4.87;3.87;;;-0.40;99.90;;;;;;5004596;28;20477;-64
2021/01/13 06:47:58;;;;;;;13.50;4.43;;;-0.40;99.90;;;;;;5010263;28;20186;-64
2021/01/13 06:50:38;;;;;;;10.10;5.77;;;-0.40;99.90;;;;;;5006531;28;20448;-64
2021/01/13 06:53:12;;;;;;;13.27;5.60;;;-0.40;99.90;;;;;;5004794;28;20431;-65
2021/01/13 06:55:39;;;;;;;10.90;4.27;;;-0.40;99.90;;;;;;5010881;28;20439;-65
2021/01/13 06:58:14;;;;;;;21.03;4.90;;;-0.40;99.90;;;;;;5007626;28;20433;-65
2021/01/13 07:00:41;;;;;;;6.53;3.97;;;-0.40;99.90;;;;;;5010041;28;20536;-65
2021/01/13 07:03:29;;;;;;;6.30;4.17;;;-0.40;99.90;;;;;;5005268;28;20912;-66
2021/01/13 07:05:56;;;;;;;10.80;5.10;;;-0.40;99.90;;;;;;5005772;28;20468;-64
2021/01/13 07:08:22;;;;;;;15.47;5.50;;;-0.30;99.90;;;;;;5003986;28;20442;-64
2021/01/13 07:10:48;;;;;;;13.03;5.33;;;-0.30;99.90;;;;;;5003544;28;20503;-64
2021/01/13 07:13:17;;;;;;;7.33;3.90;;;-0.30;99.90;;;;;;5006502;28;20426;-64
2021/01/13 07:15:44;;;;;;;4.70;3.47;;;-0.30;99.90;;;;;;5002832;28;20524;-64
2021/01/13 07:18:10;;;;;;;4.33;3.00;;;-0.30;99.90;;;;;;5006970;28;20583;-65
2021/01/13 07:20:42;;;;;;;7.90;4.00;;;-0.30;99.90;;;;;;5004168;28;20460;-64
2021/01/13 07:23:09;;;;;;;4.93;2.93;;;-0.40;99.90;;;;;;5017279;28;20997;-66
2021/01/13 07:25:45;;;;;;;5.63;3.10;;;-0.30;99.90;;;;;;5015782;28;20503;-66
2021/01/13 07:28:15;;;;;;;10.30;3.37;;;-0.40;99.90;;;;;;5013376;28;20424;-64
2021/01/13 07:30:42;;;;;;;5.80;3.87;;;-0.40;99.90;;;;;;4999682;28;21452;-64
2021/01/13 07:33:11;;;;;;;9.20;4.00;;;-0.40;99.90;;;;;;5017232;28;20942;-64
2021/01/13 07:35:44;;;;;;;10.33;3.70;;;-0.40;99.90;;;;;;4995532;28;20432;-64
2021/01/13 07:38:13;;;;;;;9.43;3.50;;;-0.40;99.90;;;;;;5001577;28;20425;-64
2021/01/13 07:40:47;;;;;;;10.83;3.57;;;-0.40;99.90;;;;;;5001504;28;20476;-63
2021/01/13 07:43:36;;;;;;;10.50;3.77;;;-0.40;99.90;;;;;;5006198;28;20477;-64
2021/01/13 07:46:07;;;;;;;10.07;3.87;;;-0.40;99.90;;;;;;5017253;28;21007;-62
2021/01/13 07:49:09;;;;;;;9.23;3.70;;;-0.40;99.90;;;;;;5007666;28;20849;-66
2021/01/13 07:51:55;;;;;;;5.37;3.57;;;-0.40;99.90;;;;;;5003503;28;20545;-64
2021/01/13 07:54:28;;;;;;;5.47;3.23;;;-0.40;99.90;;;;;;5002864;28;20425;-65
2021/01/13 07:57:05;;;;;;;5.43;3.20;;;-0.40;99.90;;;;;;5007349;28;20444;-65
2021/01/13 07:59:39;;;;;;;5.67;3.43;;;-0.40;99.90;;;;;;5004556;28;20437;-64
2021/01/13 08:02:14;;;;;;;4.63;3.83;;;-0.30;99.90;;;;;;5012294;28;20445;-65
2021/01/13 08:05:16;;;;;;;7.40;3.40;;;-0.30;99.90;;;;;;5011062;28;21048;-64
2021/01/13 08:07:44;;;;;;;10.57;4.50;;;-0.30;99.90;;;;;;5014057;28;20471;-65
2021/01/13 08:10:10;;;;;;;11.83;3.83;;;-0.20;99.90;;;;;;5007184;28;21028;-64
2021/01/13 08:13:14;;;;;;;7.80;3.83;;;-0.20;99.90;;;;;;5010483;28;20420;-65
2021/01/13 08:15:53;;;;;;;7.23;4.30;;;-0.20;99.90;;;;;;4945791;28;20459;-64
2021/01/13 08:18:45;;;;;;;12.27;4.33;;;-0.10;99.90;;;;;;4941197;28;20453;-65
2021/01/13 08:21:33;;;;;;;5.17;3.00;;;-0.10;99.90;;;;;;4995031;28;20465;-66
2021/01/13 08:24:15;;;;;;;10.13;3.90;;;-0.10;99.90;;;;;;5017769;28;20772;-65
2021/01/13 08:26:41;;;;;;;5.40;3.47;;;0.00;99.90;;;;;;5011866;28;20468;-65
2021/01/13 08:29:20;;;;;;;8.67;3.13;;;0.00;99.90;;;;;;5011723;28;20432;-66
2021/01/13 08:32:02;;;;;;;6.10;3.30;;;0.00;99.90;;;;;;5011446;28;20447;-65
2021/01/13 08:34:38;;;;;;;7.40;3.40;;;0.10;99.90;;;;;;5012729;28;20433;-64
2021/01/13 08:37:05;;;;;;;4.10;2.83;;;0.10;99.90;;;;;;5014851;28;20437;-65
2021/01/13 08:39:32;;;;;;;11.30;3.53;;;0.10;99.90;;;;;;5009631;28;20437;-65
2021/01/13 08:42:22;;;;;;;7.63;3.80;;;0.10;99.90;;;;;;5010583;28;20555;-64
2021/01/13 08:44:49;;;;;;;14.63;4.17;;;0.20;99.90;;;;;;5011288;28;20568;-65
2021/01/13 08:47:15;;;;;;;8.77;3.77;;;0.20;99.90;;;;;;5022860;28;20453;-64
2021/01/13 08:49:41;;;;;;;4.13;3.27;;;0.20;99.90;;;;;;5000303;28;20416;-64
2021/01/13 08:52:13;;;;;;;8.17;4.20;;;0.30;99.90;;;;;;5008987;28;20460;-65
2021/01/13 08:54:45;;;;;;;9.40;3.60;;;0.30;99.90;;;;;;5007337;28;20452;-65
2021/01/13 08:57:12;;;;;;;8.00;4.10;;;0.30;99.90;;;;;;5009155;28;20441;-64
2021/01/13 08:59:38;;;;;;;12.00;3.90;;;0.30;99.90;;;;;;5007006;28;20471;-63
2021/01/13 09:02:07;;;;;;;6.37;2.90;;;0.30;99.90;;;;;;5011368;28;20452;-65
2021/01/13 09:04:57;;;;;;;6.70;3.60;;;0.40;99.90;;;;;;5012307;28;20443;-64
2021/01/13 09:07:44;;;;;;;7.40;3.60;;;0.40;99.90;;;;;;5012853;28;20472;-65
2021/01/13 09:10:11;;;;;;;6.20;3.67;;;0.40;99.90;;;;;;5004416;28;20470;-65
2021/01/13 09:12:45;;;;;;;4.50;3.23;;;0.50;99.90;;;;;;5010179;28;20955;-64
2021/01/13 09:15:12;;;;;;;6.57;4.20;;;0.50;99.90;;;;;;5008896;28;20426;-65
2021/01/13 09:18:04;;;;;;;7.97;4.00;;;0.50;99.90;;;;;;5008658;28;20464;-64
2021/01/13 09:20:32;;;;;;;6.10;3.23;;;0.60;99.70;;;;;;5007778;28;20469;-65
2021/01/13 09:23:04;;;;;;;9.60;3.90;;;0.60;99.10;;;;;;5006241;28;20437;-65
2021/01/13 09:25:30;;;;;;;14.90;3.00;;;0.70;98.70;;;;;;5007730;28;20442;-65
2021/01/13 09:28:01;;;;;;;11.03;3.17;;;0.80;98.90;;;;;;5010714;28;20512;-65
2021/01/13 09:30:41;;;;;;;8.27;3.00;;;0.90;98.60;;;;;;5007140;28;20449;-65
2021/01/13 09:33:19;;;;;;;6.10;3.40;;;0.90;98.10;;;;;;5009403;28;20460;-65
2021/01/13 09:35:58;;;;;;;5.10;3.13;;;1.00;98.10;;;;;;5006427;28;20441;-65
2021/01/13 09:38:27;;;;;;;4.50;3.50;;;1.20;97.90;;;;;;5012386;28;20968;-64
2021/01/13 09:41:00;;;;;;;4.30;2.77;;;1.40;97.00;;;;;;5001928;28;20475;-64
2021/01/13 09:43:37;;;;;;;2.27;2.10;;;1.50;97.10;;;;;;5008280;28;21094;-64
2021/01/13 09:46:26;;;;;;;2.87;2.07;;;1.70;95.10;;;;;;5003027;28;20514;-64
2021/01/13 09:48:59;;;;;;;3.53;1.70;;;1.90;94.70;;;;;;5003587;28;20468;-65
2021/01/13 09:51:26;;;;;;;4.63;2.10;;;2.10;94.30;;;;;;5016435;28;20467;-65
2021/01/13 09:53:54;;;;;;;5.23;2.53;;;2.20;93.20;;;;;;5008477;28;20808;-66
2021/01/13 09:56:21;;;;;;;2.30;2.10;;;2.20;93.20;;;;;;5006070;28;20431;-66
2021/01/13 09:58:48;;;;;;;3.30;2.10;;;2.30;92.70;;;;;;5007528;28;20434;-65
2021/01/13 10:01:20;;;;;;;3.90;2.33;;;2.40;91.30;;;;;;4986559;28;20455;-64
2021/01/13 10:03:48;;;;;;;2.93;2.10;;;2.50;92.60;;;;;;4993764;28;20484;-65
2021/01/13 10:06:19;;;;;;;3.40;2.17;;;2.70;93.00;;;;;;4998667;28;20461;-65
2021/01/13 10:08:47;;;;;;;3.20;2.23;;;2.90;92.00;;;;;;4997874;28;20434;-64
2021/01/13 10:11:14;;;;;;;3.23;2.20;;;3.00;90.60;;;;;;4997054;28;21169;-68
2021/01/13 10:13:42;;;;;;;5.83;2.83;;;3.00;91.30;;;;;;4995554;28;20531;-65
2021/01/13 10:16:09;;;;;;;3.13;2.47;;;2.90;90.70;;;;;;4995659;28;20441;-64
2021/01/13 10:18:49;;;;;;;2.60;2.40;;;2.80;91.00;;;;;;5000767;28;20432;-65
2021/01/13 10:21:16;;;;;;;2.70;2.50;;;2.70;91.60;;;;;;5003183;28;20443;-64
2021/01/13 10:23:43;;;;;;;8.83;2.87;;;2.60;92.30;;;;;;5002915;28;21229;-65
2021/01/13 10:26:09;;;;;;;5.67;3.43;;;2.50;92.20;;;;;;5001956;28;21042;-67
2021/01/13 10:28:36;;;;;;;7.43;3.60;;;2.40;93.00;;;;;;5003900;28;20901;-66
2021/01/13 10:31:04;;;;;;;5.97;4.20;;;2.30;93.20;;;;;;5019613;28;20454;-65
2021/01/13 10:33:52;;;;;;;6.53;4.07;;;2.30;94.00;;;;;;5002412;28;21053;-66
2021/01/13 10:36:32;;;;;;;7.40;4.07;;;2.40;93.40;;;;;;5009774;28;20435;-64
2021/01/13 10:39:23;;;;;;;15.57;4.47;;;2.50;92.50;;;;;;5001328;28;20426;-65
2021/01/13 10:41:51;;;;;;;7.07;4.53;;;2.50;93.40;;;;;;4991767;28;20473;-65
2021/01/13 10:44:25;;;;;;;8.67;4.97;;;2.60;93.90;;;;;;4993939;28;21005;-65
2021/01/13 10:46:52;;;;;;;7.63;4.63;;;2.60;93.70;;;;;;5002625;28;20496;-66
2021/01/13 10:49:40;;;;;;;6.03;4.47;;;2.60;93.30;;;;;;4991988;28;20806;-64
2021/01/13 10:52:14;;;;;;;8.80;4.20;;;2.60;93.10;;;;;;4993007;28;20544;-65
2021/01/13 10:54:45;;;;;;;12.93;4.53;;;2.50;93.40;;;;;;4991443;28;20426;-65
2021/01/13 10:57:29;;;;;;;6.23;3.80;;;2.50;93.80;;;;;;4994630;28;21378;-65
2021/01/13 11:00:09;;;;;;;5.63;3.87;;;2.40;93.60;;;;;;4995324;28;20977;-66
2021/01/13 11:02:35;;;;;;;12.33;5.00;;;2.30;94.30;;;;;;4994691;28;20470;-67
2021/01/13 11:05:03;;;;;;;6.47;4.23;;;2.40;94.80;;;;;;4988660;28;20455;-68
2021/01/13 11:07:40;;;;;;;6.00;3.83;;;2.50;95.00;;;;;;4997154;28;20946;-65
2021/01/13 11:10:10;;;;;;;5.70;3.53;;;2.60;94.30;;;;;;5003108;28;21247;-63
2021/01/13 11:12:37;;;;;;;5.90;3.70;;;2.60;94.10;;;;;;4999552;28;20860;-64
2021/01/13 11:15:08;;;;;;;8.87;4.70;;;2.60;93.80;;;;;;4997181;28;20456;-64
2021/01/13 11:17:35;;;;;;;6.33;4.23;;;2.60;93.90;;;;;;4998581;28;21453;-66
2021/01/13 11:20:02;;;;;;;6.50;4.30;;;2.50;93.50;;;;;;4994046;28;20453;-65
2021/01/13 11:22:51;;;;;;;7.53;4.20;;;2.40;93.90;;;;;;4997323;28;20462;-66
2021/01/13 11:25:37;;;;;;;7.27;4.80;;;2.40;94.30;;;;;;4999496;28;20442;-67
2021/01/13 11:28:10;;;;;;;7.70;4.00;;;2.30;94.50;;;;;;5006008;28;20453;-65
2021/01/13 11:30:39;;;;;;;7.27;4.80;;;2.30;94.60;;;;;;4998949;28;20487;-61
2021/01/13 11:33:07;;;;;;;6.30;4.07;;;2.30;94.90;;;;;;4997874;28;20425;-65
2021/01/13 11:35:38;;;;;;;6.30;3.97;;;2.30;94.60;;;;;;5011080;28;20452;-65
2021/01/13 11:38:37;;;;;;;10.57;5.00;;;2.30;94.70;;;;;;5011638;28;20437;-65
2021/01/13 11:41:18;;;;;;;5.83;4.30;;;2.40;94.90;;;;;;4996113;28;20503;-67
2021/01/13 11:44:08;;;;;;;6.07;3.93;;;2.40;94.80;;;;;;4989068;28;22531;-65
2021/01/13 11:46:38;;;;;;;8.60;4.70;;;2.50;94.80;;;;;;5001124;28;20482;-67
2021/01/13 11:49:18;;;;;;;6.77;3.93;;;2.60;94.20;;;;;;4996643;28;21148;-65
2021/01/13 11:51:51;;;;;;;5.03;3.97;;;2.70;93.80;;;;;;4996419;28;20446;-68
2021/01/13 11:54:31;;;;;;;6.77;4.60;;;2.70;93.70;;;;;;4995619;28;20487;-66
2021/01/13 11:57:19;;;;;;;9.93;4.47;;;2.80;93.90;;;;;;5003493;28;20441;-66
2021/01/13 11:59:46;;;;;;;8.00;4.30;;;2.90;93.00;;;;;;5003356;28;20433;-67
2021/01/13 12:02:31;;;;;;;6.47;3.90;;;3.00;93.10;;;;;;5002860;28;20479;-65
2021/01/13 12:04:57;;;;;;;5.63;3.57;;;3.00;93.20;;;;;;5002801;28;20535;-65
2021/01/13 12:07:26;;;;;;;5.83;3.80;;;3.00;92.80;;;;;;5002252;28;21205;-67
2021/01/13 12:10:12;;;;;;;8.40;4.10;;;3.00;92.80;;;;;;4997496;28;20443;-65
2021/01/13 12:12:38;;;;;;;7.27;3.90;;;3.00;92.20;;;;;;5000549;28;21027;-66
2021/01/13 12:15:10;;;;;;;7.77;4.10;;;3.00;92.80;;;;;;4998568;28;20434;-66
2021/01/13 12:17:50;;;;;;;7.80;4.50;;;3.00;92.70;;;;;;5002175;28;20450;-65
2021/01/13 12:20:36;;;;;;;6.67;3.80;;;3.00;92.40;;;;;;5001411;28;20446;-65
2021/01/13 12:23:31;;;;;;;4.33;3.27;;;2.90;92.40;;;;;;5000918;28;20524;-65
2021/01/13 12:26:35;;;;;;;5.33;3.67;;;3.00;91.80;;;;;;4996912;28;20465;-66
2021/01/13 12:29:01;;;;;;;7.50;3.63;;;2.90;91.30;;;;;;5002237;28;20437;-65
2021/01/13 12:31:37;;;;;;;6.43;4.00;;;3.00;92.00;;;;;;5005703;28;20552;-65
2021/01/13 12:34:04;;;;;;;5.93;4.23;;;3.00;92.00;;;;;;5016730;28;20314;-68
2021/01/13 12:36:36;;;;;;;5.20;4.13;;;3.00;92.70;;;;;;5015886;28;20580;-66
2021/01/13 12:39:03;;;;;;;5.60;4.60;;;3.00;92.90;;;;;;5019927;28;20438;-67
2021/01/13 12:41:36;;;;;;;9.70;4.50;;;3.00;92.70;;;;;;5000544;28;21252;-68
2021/01/13 12:44:11;;;;;;;5.77;3.80;;;3.00;92.90;;;;;;4998887;28;20430;-66
2021/01/13 12:46:49;;;;;;;7.37;4.20;;;3.00;92.30;;;;;;4998991;28;20513;-65
2021/01/13 12:49:18;;;;;;;11.80;4.70;;;3.00;91.80;;;;;;4996137;28;20916;-68
2021/01/13 12:51:50;;;;;;;4.57;4.10;;;3.00;91.70;;;;;;4995706;28;20459;-65
2021/01/13 12:54:15;;;;;;;8.00;4.23;;;3.00;92.10;;;;;;4996633;28;20457;-63
2021/01/13 12:56:41;;;;;;;6.90;3.70;;;3.00;92.50;;;;;;4994547;28;20914;-63
2021/01/13 12:59:07;;;;;;;8.13;4.60;;;3.00;92.30;;;;;;4993415;28;20681;-64
2021/01/13 13:01:38;;;;;;;5.90;4.00;;;3.00;91.50;;;;;;5004770;28;20212;-62
2021/01/13 13:04:04;;;;;;;6.77;4.07;;;3.00;91.80;;;;;;5002413;28;20448;-62
2021/01/13 13:06:32;;;;;;;7.20;4.50;;;3.10;91.90;;;;;;5000541;28;20474;-59
2021/01/13 13:09:00;;;;;;;8.03;4.63;;;3.10;90.70;;;;;;5001312;28;20435;-61
2021/01/13 13:11:30;;;;;;;7.20;4.20;;;3.10;91.30;;;;;;5004676;28;20499;-64
2021/01/13 13:13:59;;;;;;;5.83;4.07;;;3.20;91.90;;;;;;4996981;28;20453;-64
2021/01/13 13:16:25;;;;;;;3.60;3.13;;;3.20;91.10;;;;;;5008628;28;20441;-63
2021/01/13 13:18:52;;;;;;;6.83;4.17;;;3.20;91.40;;;;;;5000178;28;20443;-64
2021/01/13 13:21:19;;;;;;;5.77;3.50;;;3.30;91.10;;;;;;4996418;28;20518;-64
2021/01/13 13:23:45;;;;;;;13.67;6.37;;;3.30;91.50;;;;;;5000041;28;21763;-67